Time;durP1;ratioP1;P1;durP2;ratioP2;P2;SDS_P1;SDS_P2;PMS_P1;PMS_P2;Temp;Humidity;BMP_temperature;BMP_pressure;BME280_temperature;BME280_humidity;BME280_pressure;Samples;Min_cycle;Max_cycle;Signal;HPM_P1;HPM_P2
2022/06/21 00:02:18;;;;;;;13.18;5.10;;;11.70;99.90;;;;;;5024745;28;20082;-75
2022/06/21 00:04:44;;;;;;;9.38;4.25;;;11.70;99.90;;;;;;5015467;28;20403;-74
2022/06/21 00:07:20;;;;;;;10.55;4.95;;;11.70;99.90;;;;;;5026226;28;20037;-74
2022/06/21 00:09:46;;;;;;;16.42;4.80;;;11.70;99.90;;;;;;5014375;28;20033;-75
2022/06/21 00:12:12;;;;;;;16.00;5.10;;;11.70;99.90;;;;;;5025207;28;20033;-73
2022/06/21 00:14:39;;;;;;;15.80;5.03;;;11.70;99.90;;;;;;5010570;28;20069;-74
2022/06/21 00:17:05;;;;;;;14.30;4.90;;;11.70;99.90;;;;;;5012095;28;20049;-74
2022/06/21 00:19:32;;;;;;;14.38;4.75;;;11.60;99.90;;;;;;5015988;28;20121;-74
2022/06/21 00:21:58;;;;;;;10.60;4.43;;;11.60;99.90;;;;;;5024775;28;20460;-74
2022/06/21 00:24:23;;;;;;;11.48;4.82;;;11.50;99.90;;;;;;5027454;28;20030;-73
2022/06/21 00:26:49;;;;;;;12.68;5.65;;;11.50;99.90;;;;;;5026482;28;20107;-74
2022/06/21 00:29:15;;;;;;;13.27;5.18;;;11.40;99.90;;;;;;5022442;28;20543;-73
2022/06/21 00:31:46;;;;;;;11.38;4.97;;;11.30;99.90;;;;;;5026911;28;20434;-73
2022/06/21 00:34:20;;;;;;;14.57;5.38;;;11.20;99.90;;;;;;5020434;28;20048;-73
2022/06/21 00:36:48;;;;;;;13.20;5.30;;;11.10;99.90;;;;;;5007656;28;20395;-72
2022/06/21 00:39:15;;;;;;;13.57;5.72;;;11.10;99.90;;;;;;5008017;28;20033;-73
2022/06/21 00:41:54;;;;;;;12.93;5.40;;;11.10;99.90;;;;;;5020573;28;20059;-74
2022/06/21 00:44:27;;;;;;;15.10;5.57;;;11.10;99.90;;;;;;5025410;28;20030;-73
2022/06/21 00:47:01;;;;;;;15.27;6.10;;;11.10;99.90;;;;;;5023788;28;20048;-73
2022/06/21 00:49:32;;;;;;;17.77;5.68;;;11.20;99.90;;;;;;5031075;28;20044;-73
2022/06/21 00:52:10;;;;;;;15.23;5.60;;;11.20;99.90;;;;;;5033068;28;20028;-75
2022/06/21 00:54:45;;;;;;;15.13;6.38;;;11.20;99.90;;;;;;5013811;28;20030;-75
2022/06/21 00:57:15;;;;;;;15.93;5.97;;;11.20;99.90;;;;;;5025552;28;20618;-75
2022/06/21 00:59:41;;;;;;;16.23;5.65;;;11.20;99.90;;;;;;5009569;28;20050;-77
2022/06/21 01:02:24;;;;;;;11.60;5.40;;;11.20;99.90;;;;;;5025270;28;20498;-76
2022/06/21 01:04:54;;;;;;;10.55;5.45;;;11.20;99.90;;;;;;5024448;28;20108;-75
2022/06/21 01:07:20;;;;;;;14.77;5.82;;;11.20;99.90;;;;;;5008369;28;20395;-75
2022/06/21 01:10:11;;;;;;;11.82;5.57;;;11.10;99.90;;;;;;5024506;28;20132;-75
2022/06/21 01:12:47;;;;;;;11.57;5.68;;;11.10;99.90;;;;;;5023002;28;20061;-75
2022/06/21 01:15:19;;;;;;;13.68;6.00;;;11.10;99.90;;;;;;5002414;28;20037;-76
2022/06/21 01:17:48;;;;;;;17.42;6.80;;;11.10;99.90;;;;;;5024025;28;20041;-74
2022/06/21 01:20:19;;;;;;;14.48;6.30;;;11.00;99.90;;;;;;5025989;28;20032;-75
2022/06/21 01:23:02;;;;;;;14.32;6.40;;;10.90;99.90;;;;;;5020979;28;20029;-75
2022/06/21 01:25:54;;;;;;;12.18;6.03;;;10.80;99.90;;;;;;5017693;28;20037;-76
2022/06/21 01:28:20;;;;;;;13.63;6.30;;;10.70;99.90;;;;;;5011851;28;20608;-74
2022/06/21 01:30:51;;;;;;;16.42;6.63;;;10.80;99.90;;;;;;5023387;28;20056;-74
2022/06/21 01:33:26;;;;;;;17.75;6.88;;;10.80;99.90;;;;;;5016773;28;20472;-74
2022/06/21 01:35:55;;;;;;;14.77;6.60;;;10.80;99.90;;;;;;5019621;28;20049;-74
2022/06/21 01:38:32;;;;;;;14.50;5.65;;;10.70;99.90;;;;;;5021841;28;20044;-75
2022/06/21 01:41:05;;;;;;;15.13;6.28;;;10.60;99.90;;;;;;5023928;28;20033;-74
2022/06/21 01:43:33;;;;;;;21.02;6.53;;;10.70;99.90;;;;;;5012654;28;20030;-74
2022/06/21 01:46:03;;;;;;;16.83;6.95;;;10.70;99.90;;;;;;5030162;28;20037;-74
2022/06/21 01:48:37;;;;;;;13.63;6.28;;;10.80;99.90;;;;;;5021725;28;20087;-75
2022/06/21 01:51:34;;;;;;;11.75;5.40;;;10.80;99.90;;;;;;5021318;28;20551;-75
2022/06/21 01:54:03;;;;;;;13.35;6.47;;;10.80;99.90;;;;;;5012793;28;20044;-74
2022/06/21 01:56:33;;;;;;;14.95;6.20;;;10.80;99.90;;;;;;5025496;28;20041;-75
2022/06/21 01:59:07;;;;;;;14.90;6.50;;;10.80;99.90;;;;;;5007004;28;20057;-76
2022/06/21 02:01:50;;;;;;;14.48;6.10;;;10.80;99.90;;;;;;5021756;28;20451;-74
2022/06/21 02:04:20;;;;;;;14.05;6.53;;;10.80;99.90;;;;;;5023619;28;20701;-77
2022/06/21 02:06:47;;;;;;;12.63;6.53;;;10.80;99.90;;;;;;5006372;28;20118;-74
2022/06/21 02:09:39;;;;;;;12.93;6.65;;;10.80;99.90;;;;;;5012454;28;20487;-75
2022/06/21 02:12:09;;;;;;;15.73;6.07;;;10.80;99.90;;;;;;5026572;28;20029;-75
2022/06/21 02:14:42;;;;;;;15.63;6.60;;;10.70;99.90;;;;;;5019720;28;20049;-74
2022/06/21 02:17:27;;;;;;;15.98;6.18;;;10.60;99.90;;;;;;5023233;28;20408;-75
2022/06/21 02:20:19;;;;;;;11.30;5.10;;;10.60;99.90;;;;;;5032151;28;20033;-75
2022/06/21 02:22:46;;;;;;;17.10;6.40;;;10.50;99.90;;;;;;5026139;28;20053;-75
2022/06/21 02:25:21;;;;;;;14.00;6.68;;;10.50;99.90;;;;;;5023084;28;20121;-76
2022/06/21 02:27:48;;;;;;;12.82;6.00;;;10.50;99.90;;;;;;5010939;28;20029;-75
2022/06/21 02:30:20;;;;;;;12.32;6.05;;;10.40;99.90;;;;;;5027294;28;20072;-77
2022/06/21 02:32:46;;;;;;;18.92;7.38;;;10.30;99.90;;;;;;5007307;28;20026;-74
2022/06/21 02:35:24;;;;;;;14.23;6.70;;;10.20;99.90;;;;;;5010932;28;20034;-75
2022/06/21 02:37:53;;;;;;;10.93;6.50;;;10.10;99.90;;;;;;5005302;28;20045;-74
2022/06/21 02:40:44;;;;;;;14.07;6.32;;;10.10;99.90;;;;;;5022111;28;20083;-75
2022/06/21 02:43:21;;;;;;;13.52;6.57;;;10.00;99.90;;;;;;5023118;28;20057;-75
2022/06/21 02:45:50;;;;;;;14.70;6.15;;;10.00;99.90;;;;;;5026997;28;20755;-74
2022/06/21 02:48:20;;;;;;;10.52;6.07;;;10.00;99.90;;;;;;5028006;28;20119;-76
2022/06/21 02:50:51;;;;;;;16.25;6.47;;;10.00;99.90;;;;;;5023671;28;20441;-75
2022/06/21 02:53:28;;;;;;;15.02;6.60;;;10.00;99.90;;;;;;5009097;28;20119;-75
2022/06/21 02:56:02;;;;;;;13.20;6.38;;;10.00;99.90;;;;;;5027304;28;20037;-75
2022/06/21 02:58:40;;;;;;;15.02;6.95;;;10.00;99.90;;;;;;5022458;28;20042;-75
2022/06/21 03:01:33;;;;;;;15.00;7.20;;;10.10;99.90;;;;;;5028028;28;20044;-75
2022/06/21 03:03:59;;;;;;;12.35;6.63;;;10.10;99.90;;;;;;5008028;28;20045;-74
2022/06/21 03:06:27;;;;;;;15.55;7.10;;;10.20;99.90;;;;;;5011100;28;20042;-74
2022/06/21 03:09:06;;;;;;;13.30;6.88;;;10.10;99.90;;;;;;5023357;28;20450;-74
2022/06/21 03:11:39;;;;;;;14.63;7.05;;;10.10;99.90;;;;;;5014473;28;20042;-75
2022/06/21 03:14:11;;;;;;;14.80;6.93;;;10.10;99.90;;;;;;5023263;28;20415;-75
2022/06/21 03:16:38;;;;;;;12.75;6.32;;;10.10;99.90;;;;;;5027651;28;20037;-74
2022/06/21 03:19:14;;;;;;;13.68;6.88;;;10.00;99.90;;;;;;5001834;28;20030;-75
2022/06/21 03:21:40;;;;;;;13.60;6.90;;;10.00;99.90;;;;;;5005491;28;20046;-74
2022/06/21 03:24:12;;;;;;;12.02;6.18;;;9.90;99.90;;;;;;5021639;28;20060;-75
2022/06/21 03:26:40;;;;;;;16.25;7.35;;;10.00;99.90;;;;;;5008095;28;20115;-74
2022/06/21 03:29:07;;;;;;;14.32;6.53;;;10.00;99.90;;;;;;5024805;28;20029;-74
2022/06/21 03:31:39;;;;;;;14.02;6.93;;;10.00;99.90;;;;;;5030344;28;20025;-75
2022/06/21 03:34:09;;;;;;;17.33;6.72;;;10.10;99.90;;;;;;5021668;28;20033;-74
2022/06/21 03:36:35;;;;;;;14.47;6.80;;;10.10;99.90;;;;;;5026636;28;20061;-74
2022/06/21 03:39:11;;;;;;;12.60;6.82;;;10.10;99.90;;;;;;5008409;28;20026;-75
2022/06/21 03:41:43;;;;;;;12.05;6.70;;;10.10;99.90;;;;;;5022505;28;20025;-74
2022/06/21 03:44:30;;;;;;;13.30;7.03;;;10.10;99.90;;;;;;5024885;28;20257;-75
2022/06/21 03:47:08;;;;;;;14.90;7.43;;;10.10;99.90;;;;;;5016865;28;20087;-74
2022/06/21 03:49:44;;;;;;;13.93;6.55;;;10.10;99.90;;;;;;5019157;28;20060;-75
2022/06/21 03:52:41;;;;;;;14.60;7.32;;;10.10;99.90;;;;;;5021326;28;20037;-75
2022/06/21 03:55:12;;;;;;;14.43;7.47;;;10.10;99.90;;;;;;5016913;28;20037;-76
2022/06/21 03:57:45;;;;;;;14.57;6.60;;;10.10;99.90;;;;;;5017903;28;20042;-75
2022/06/21 04:00:13;;;;;;;15.82;7.55;;;10.00;99.90;;;;;;5007643;28;20041;-75
2022/06/21 04:02:41;;;;;;;15.73;6.95;;;10.00;99.90;;;;;;5026063;28;20120;-74
2022/06/21 04:05:16;;;;;;;17.38;6.97;;;10.00;99.90;;;;;;5029434;28;20087;-75
2022/06/21 04:07:59;;;;;;;12.32;6.32;;;10.00;99.90;;;;;;5037073;28;20033;-75
2022/06/21 04:10:37;;;;;;;17.98;6.75;;;10.00;99.90;;;;;;5031012;28;20087;-74
2022/06/21 04:13:24;;;;;;;10.80;6.10;;;9.90;99.90;;;;;;4995759;28;20026;-74
2022/06/21 04:16:15;;;;;;;11.75;6.00;;;9.90;99.90;;;;;;5022075;28;20095;-75
2022/06/21 04:18:50;;;;;;;15.20;6.70;;;9.80;99.90;;;;;;5008385;28;20711;-74
2022/06/21 04:21:31;;;;;;;11.52;7.13;;;9.70;99.90;;;;;;5007703;28;20025;-74
2022/06/21 04:24:10;;;;;;;11.38;6.60;;;9.60;99.90;;;;;;5025770;28;20048;-75
2022/06/21 04:27:11;;;;;;;11.65;6.47;;;9.60;99.90;;;;;;4998589;28;20038;-74
2022/06/21 04:29:53;;;;;;;12.90;6.70;;;9.60;99.90;;;;;;5025744;28;20037;-75
2022/06/21 04:32:43;;;;;;;14.07;6.70;;;9.70;99.90;;;;;;5004015;28;20120;-74
2022/06/21 04:35:21;;;;;;;12.35;6.65;;;9.70;99.90;;;;;;5007231;28;20037;-75
2022/06/21 04:37:53;;;;;;;10.95;6.20;;;9.80;99.90;;;;;;5007889;28;20084;-75
2022/06/21 04:40:23;;;;;;;10.48;6.53;;;9.90;99.90;;;;;;5026103;28;20471;-75
2022/06/21 04:42:52;;;;;;;14.60;7.13;;;10.00;99.90;;;;;;5005970;28;20403;-75
2022/06/21 04:45:43;;;;;;;13.38;6.60;;;10.10;99.90;;;;;;5025233;28;20148;-75
2022/06/21 04:48:36;;;;;;;15.43;6.65;;;10.10;99.90;;;;;;5023616;28;20088;-74
2022/06/21 04:51:27;;;;;;;12.00;5.97;;;10.20;99.90;;;;;;5022389;28;20567;-76
2022/06/21 04:54:02;;;;;;;13.90;6.13;;;10.20;99.90;;;;;;5024405;28;20083;-74
2022/06/21 04:57:09;;;;;;;12.65;5.93;;;10.30;99.90;;;;;;5024866;28;20447;-75
2022/06/21 04:59:43;;;;;;;12.18;6.30;;;10.40;99.90;;;;;;5010459;28;20474;-74
2022/06/21 05:02:18;;;;;;;18.73;6.97;;;10.40;99.90;;;;;;5005239;28;20026;-74
2022/06/21 05:04:48;;;;;;;13.30;6.97;;;10.50;99.90;;;;;;5004283;28;20436;-74
2022/06/21 05:07:20;;;;;;;16.83;6.82;;;10.60;99.90;;;;;;5005577;28;20397;-74
2022/06/21 05:09:48;;;;;;;16.15;6.75;;;10.60;99.90;;;;;;5002211;28;20045;-74
2022/06/21 05:12:25;;;;;;;13.43;6.90;;;10.70;99.90;;;;;;5005336;28;20037;-74
2022/06/21 05:14:56;;;;;;;16.02;7.63;;;10.80;99.90;;;;;;5004233;28;20030;-74
2022/06/21 05:17:23;;;;;;;15.35;6.55;;;10.90;99.90;;;;;;5004211;28;20037;-73
2022/06/21 05:19:57;;;;;;;12.55;6.53;;;11.00;99.90;;;;;;5004571;28;20033;-75
2022/06/21 05:22:33;;;;;;;12.98;6.10;;;11.10;99.90;;;;;;5006321;28;20062;-73
2022/06/21 05:25:00;;;;;;;13.23;5.85;;;11.10;99.90;;;;;;5002615;28;20025;-75
2022/06/21 05:27:46;;;;;;;12.30;6.05;;;11.20;99.90;;;;;;5003872;28;20022;-74
2022/06/21 05:30:22;;;;;;;12.10;4.90;;;11.30;99.90;;;;;;4994110;28;20026;-75
2022/06/21 05:32:54;;;;;;;17.05;6.93;;;11.30;99.90;;;;;;5003571;28;20052;-75
2022/06/21 05:35:24;;;;;;;16.13;6.55;;;11.30;99.90;;;;;;5003377;28;20824;-74
2022/06/21 05:38:06;;;;;;;13.77;6.35;;;11.30;99.90;;;;;;5005009;28;20040;-75
2022/06/21 05:40:41;;;;;;;14.13;6.13;;;11.20;99.90;;;;;;4998787;28;20116;-74
2022/06/21 05:43:36;;;;;;;10.40;6.97;;;11.30;99.90;;;;;;5008714;28;20038;-76
2022/06/21 05:46:10;;;;;;;14.85;7.10;;;11.30;99.90;;;;;;5003213;28;20031;-75
2022/06/21 05:48:38;;;;;;;16.48;7.00;;;11.30;99.90;;;;;;5002927;28;20026;-74
2022/06/21 05:51:06;;;;;;;12.75;6.40;;;11.30;99.90;;;;;;5006490;28;20106;-75
2022/06/21 05:53:45;;;;;;;15.75;6.35;;;11.40;99.90;;;;;;5008912;28;20100;-74
2022/06/21 05:56:14;;;;;;;13.17;6.13;;;11.50;99.90;;;;;;5009004;28;20053;-73
2022/06/21 05:58:56;;;;;;;13.73;5.85;;;11.50;99.90;;;;;;5015034;28;20492;-74
2022/06/21 06:01:35;;;;;;;13.00;7.00;;;11.60;99.90;;;;;;5022587;28;20037;-75
2022/06/21 06:04:13;;;;;;;18.52;7.30;;;11.60;99.90;;;;;;5028385;28;20057;-75
2022/06/21 06:06:43;;;;;;;14.60;6.75;;;11.60;99.90;;;;;;5023885;28;20033;-74
2022/06/21 06:09:14;;;;;;;13.35;6.75;;;11.70;99.90;;;;;;5010987;28;20083;-76
2022/06/21 06:12:03;;;;;;;14.18;6.68;;;11.70;99.90;;;;;;5028652;28;20065;-75
2022/06/21 06:14:41;;;;;;;12.23;6.43;;;11.70;99.90;;;;;;5026444;28;20105;-75
2022/06/21 06:17:45;;;;;;;16.45;6.90;;;11.80;99.90;;;;;;5010264;28;20049;-76
2022/06/21 06:20:29;;;;;;;11.32;7.20;;;11.90;99.90;;;;;;5023730;28;20125;-74
2022/06/21 06:23:21;;;;;;;19.77;7.07;;;12.00;99.90;;;;;;5024840;28;20037;-76
2022/06/21 06:25:54;;;;;;;16.83;8.38;;;12.10;99.90;;;;;;5027215;28;20033;-74
2022/06/21 06:28:56;;;;;;;15.43;7.30;;;12.20;99.90;;;;;;5010151;28;20032;-74
2022/06/21 06:31:36;;;;;;;13.63;6.78;;;12.20;99.90;;;;;;5011642;28;20064;-76
2022/06/21 06:34:05;;;;;;;;;;;12.30;99.90;;;;;;5028288;28;20056;-74
2022/06/21 06:37:04;;;;;;;14.88;7.38;;;12.30;99.90;;;;;;5012608;28;19920;-76
2022/06/21 06:39:34;;;;;;;12.07;6.50;;;12.40;99.90;;;;;;5003989;28;20049;-74
2022/06/21 06:42:12;;;;;;;13.18;6.35;;;12.60;99.90;;;;;;5012928;28;20119;-77
2022/06/21 06:44:46;;;;;;;17.83;7.05;;;12.70;99.90;;;;;;5029230;28;20128;-75
2022/06/21 06:47:34;;;;;;;15.30;7.15;;;12.80;99.90;;;;;;5010430;28;20036;-76
2022/06/21 06:50:04;;;;;;;11.13;6.28;;;12.90;99.90;;;;;;5023961;28;20488;-76
2022/06/21 06:52:35;;;;;;;15.43;7.63;;;13.00;99.90;;;;;;5008368;28;20498;-77
2022/06/21 06:55:13;;;;;;;13.23;6.57;;;13.10;99.90;;;;;;5025175;28;20033;-75
2022/06/21 06:58:21;;;;;;;13.30;6.35;;;13.10;99.90;;;;;;5028056;28;20030;-74
2022/06/21 07:00:52;;;;;;;15.95;8.10;;;13.20;99.90;;;;;;4944838;28;20585;-74
2022/06/21 07:03:21;;;;;;;14.00;7.30;;;13.20;99.90;;;;;;4943538;28;20035;-74
2022/06/21 07:06:05;;;;;;;13.82;7.05;;;13.20;99.90;;;;;;4932731;28;20119;-74
2022/06/21 07:09:00;;;;;;;12.93;7.30;;;13.30;99.90;;;;;;4944469;28;20158;-74
2022/06/21 07:11:38;;;;;;;13.75;7.55;;;13.40;99.90;;;;;;4869098;29;20138;-73
2022/06/21 07:14:09;;;;;;;13.95;6.65;;;13.40;99.90;;;;;;4871125;29;20045;-75
2022/06/21 07:16:36;;;;;;;14.25;7.32;;;13.50;99.90;;;;;;4874943;29;20051;-74
2022/06/21 07:19:03;;;;;;;14.73;6.78;;;13.60;99.90;;;;;;4849787;29;20068;-75
2022/06/21 07:21:29;;;;;;;16.52;7.40;;;13.70;99.90;;;;;;4854385;29;20044;-74
2022/06/21 07:23:59;;;;;;;17.42;6.75;;;13.70;99.90;;;;;;4870911;29;20056;-75
2022/06/21 07:26:30;;;;;;;15.52;7.03;;;13.80;99.90;;;;;;4875622;29;20036;-74
2022/06/21 07:29:09;;;;;;;13.93;7.10;;;13.90;99.90;;;;;;4872133;29;20037;-73
2022/06/21 07:31:47;;;;;;;14.20;6.55;;;14.00;99.90;;;;;;4860828;29;20043;-76
2022/06/21 07:34:15;;;;;;;13.80;6.10;;;14.10;99.90;;;;;;4887106;29;20148;-74
2022/06/21 07:36:53;;;;;;;14.15;6.60;;;14.20;99.90;;;;;;4930526;29;20043;-73
2022/06/21 07:39:25;;;;;;;13.10;5.97;;;14.30;99.90;;;;;;4930200;29;20506;-76
2022/06/21 07:42:11;;;;;;;17.55;7.00;;;14.40;99.90;;;;;;4945548;29;20078;-73
2022/06/21 07:44:49;;;;;;;12.30;5.55;;;14.50;99.90;;;;;;4939316;29;20111;-73
2022/06/21 07:47:30;;;;;;;15.35;6.28;;;14.60;99.90;;;;;;4955118;28;20059;-72
2022/06/21 07:50:01;;;;;;;14.25;5.97;;;14.70;99.90;;;;;;5027462;28;20030;-72
2022/06/21 07:52:39;;;;;;;12.40;6.28;;;14.80;99.90;;;;;;5022996;28;20462;-72
2022/06/21 07:55:16;;;;;;;13.20;6.30;;;14.80;99.90;;;;;;5010007;28;20179;-72
2022/06/21 07:57:49;;;;;;;12.05;5.68;;;15.00;99.90;;;;;;5000958;28;20522;-72
2022/06/21 08:00:21;;;;;;;18.17;5.88;;;15.10;99.90;;;;;;5028238;28;20546;-73
2022/06/21 08:08:42;;;;;;;12.00;5.47;;;15.40;99.90;;;;;;5024213;28;20113;-74
2022/06/21 08:11:38;;;;;;;12.05;5.10;;;15.60;99.90;;;;;;5024819;28;20033;-74
2022/06/21 08:14:06;;;;;;;16.38;6.88;;;15.70;99.90;;;;;;4998610;28;20492;-72
2022/06/21 08:16:37;;;;;;;15.48;8.13;;;15.90;99.90;;;;;;5026090;28;20030;-74
2022/06/21 08:19:16;;;;;;;14.93;6.93;;;16.00;99.90;;;;;;5003448;28;20037;-72
2022/06/21 08:22:07;;;;;;;16.10;5.60;;;16.10;99.90;;;;;;5027322;28;20033;-76
2022/06/21 08:24:42;;;;;;;12.73;4.35;;;16.20;99.90;;;;;;5012966;28;20064;-73
2022/06/21 08:27:24;;;;;;;9.15;3.58;;;16.40;99.90;;;;;;5010976;28;20128;-75
2022/06/21 08:30:21;;;;;;;10.50;3.70;;;16.60;99.90;;;;;;5027849;28;20029;-74
2022/06/21 08:33:33;;;;;;;6.82;2.70;;;16.80;99.90;;;;;;5020640;28;20038;-75
2022/06/21 08:36:11;;;;;;;6.78;2.92;;;16.90;99.90;;;;;;5008519;28;20148;-74
2022/06/21 08:38:37;;;;;;;8.07;2.78;;;17.10;99.80;;;;;;5027934;28;20029;-74
2022/06/21 08:44:33;;;;;;;6.53;2.72;;;17.20;99.10;;;;;;5028199;28;20045;-75
2022/06/21 08:47:23;;;;;;;6.05;2.28;;;17.20;97.50;;;;;;5009210;28;20037;-75
2022/06/21 08:50:04;;;;;;;8.90;2.65;;;17.30;98.00;;;;;;5027051;28;20386;-74
2022/06/21 08:52:48;;;;;;;7.00;2.33;;;17.30;97.10;;;;;;5026970;28;20155;-74
2022/06/21 08:55:25;;;;;;;7.90;2.80;;;17.40;97.50;;;;;;5027391;28;20025;-74
2022/06/21 08:58:08;;;;;;;9.75;2.88;;;17.50;96.70;;;;;;5027274;28;20076;-74
2022/06/21 09:00:46;;;;;;;9.85;2.70;;;17.50;97.40;;;;;;5026649;28;20055;-73
2022/06/21 09:03:26;;;;;;;7.70;2.40;;;17.50;96.50;;;;;;5008851;28;20026;-75
2022/06/21 09:06:26;;;;;;;8.48;2.88;;;17.50;96.40;;;;;;5009160;28;20041;-74
2022/06/21 09:09:30;;;;;;;7.15;2.80;;;17.60;97.00;;;;;;5026887;28;20061;-74
2022/06/21 09:12:07;;;;;;;10.95;3.05;;;17.70;97.30;;;;;;4926971;29;20048;-73
2022/06/21 09:15:02;;;;;;;8.50;2.63;;;17.70;97.80;;;;;;4909997;29;20502;-73
2022/06/21 09:17:54;;;;;;;8.30;2.58;;;17.60;97.30;;;;;;4917822;29;20051;-75
2022/06/21 09:20:51;;;;;;;7.57;2.85;;;17.60;98.40;;;;;;4922905;29;20053;-76
2022/06/21 09:23:34;;;;;;;9.20;3.00;;;17.60;98.50;;;;;;4926888;29;20027;-79
2022/06/21 09:26:19;;;;;;;9.10;2.67;;;17.60;98.70;;;;;;4933989;28;20044;-75
2022/06/21 09:29:12;;;;;;;10.30;3.15;;;17.70;98.80;;;;;;4911668;29;20052;-78
2022/06/21 09:31:56;;;;;;;8.65;2.67;;;17.70;98.70;;;;;;4912993;29;20127;-73
2022/06/21 09:34:55;;;;;;;8.88;3.40;;;17.80;99.00;;;;;;4896146;29;20095;-73
2022/06/21 09:37:29;;;;;;;7.22;2.65;;;17.90;97.90;;;;;;4925533;29;20039;-75
2022/06/21 09:40:02;;;;;;;7.22;2.92;;;17.90;97.50;;;;;;4924920;29;20072;-73
2022/06/21 09:43:00;;;;;;;9.02;3.00;;;18.00;97.90;;;;;;4930962;29;20486;-74
2022/06/21 09:46:01;;;;;;;7.78;2.53;;;18.10;98.10;;;;;;4907530;29;20560;-76
2022/06/21 09:48:50;;;;;;;6.85;2.60;;;18.20;96.90;;;;;;5013924;28;20048;-74
2022/06/21 09:51:38;;;;;;;9.30;3.03;;;18.20;96.50;;;;;;5031022;28;20029;-76
2022/06/21 09:54:32;;;;;;;7.95;2.90;;;18.30;96.20;;;;;;5011623;28;20030;-73
2022/06/21 09:57:11;;;;;;;7.45;2.47;;;18.30;98.20;;;;;;5021266;28;20049;-73
2022/06/21 09:59:46;;;;;;;7.40;2.97;;;18.40;96.90;;;;;;5043423;28;20052;-72
2022/06/21 10:02:33;;;;;;;10.82;3.05;;;18.50;96.10;;;;;;5049606;28;20051;-75
2022/06/21 10:05:11;;;;;;;8.23;3.00;;;18.60;96.50;;;;;;5043881;28;20033;-76
2022/06/21 10:07:39;;;;;;;10.73;2.72;;;18.70;96.40;;;;;;5033189;28;20040;-74
2022/06/21 10:10:20;;;;;;;7.78;3.03;;;18.70;95.90;;;;;;5037425;28;20028;-72
2022/06/21 10:12:54;;;;;;;8.63;3.20;;;18.70;96.30;;;;;;5030944;28;20033;-73
2022/06/21 10:15:34;;;;;;;10.27;2.85;;;18.80;96.70;;;;;;5013184;28;20068;-76
2022/06/21 10:18:33;;;;;;;6.60;2.60;;;18.90;96.10;;;;;;5030807;28;20042;-75
2022/06/21 10:21:26;;;;;;;8.85;2.97;;;19.00;95.20;;;;;;4999868;28;20111;-77
2022/06/21 10:24:11;;;;;;;7.45;2.63;;;19.10;96.00;;;;;;5050650;28;20025;-74
2022/06/21 10:26:55;;;;;;;9.77;2.50;;;19.10;95.20;;;;;;5041095;28;20117;-75
2022/06/21 10:29:58;;;;;;;9.13;2.90;;;19.20;95.50;;;;;;5028703;28;20060;-74
2022/06/21 10:32:45;;;;;;;10.32;3.05;;;19.30;93.70;;;;;;5012546;28;20551;-74
2022/06/21 10:35:26;;;;;;;8.90;3.08;;;19.40;93.40;;;;;;5029219;28;20021;-75
2022/06/21 10:38:36;;;;;;;8.05;2.78;;;19.50;93.70;;;;;;5032531;28;20037;-75
2022/06/21 10:41:07;;;;;;;;;;;19.60;91.80;;;;;;5021100;28;20395;-73
2022/06/21 10:44:11;;;;;;;6.25;2.30;;;19.60;90.70;;;;;;5042083;28;20403;-75
2022/06/21 10:46:49;;;;;;;5.47;2.28;;;19.70;93.00;;;;;;5030076;28;20068;-73
2022/06/21 10:49:42;;;;;;;9.27;2.60;;;19.90;91.30;;;;;;5029894;28;20859;-74
2022/06/21 10:52:33;;;;;;;9.52;2.80;;;20.00;92.60;;;;;;5029437;28;20037;-74
2022/06/21 10:55:30;;;;;;;7.38;2.72;;;20.20;93.10;;;;;;5012118;28;20124;-75
2022/06/21 10:58:07;;;;;;;7.20;2.65;;;20.30;90.40;;;;;;5042862;28;20120;-73
2022/06/21 11:03:53;;;;;;;7.38;2.30;;;20.20;90.00;;;;;;5020410;28;20087;-72
2022/06/21 11:06:29;;;;;;;;;;;20.30;90.80;;;;;;5025978;28;20037;-74
2022/06/21 11:09:16;;;;;;;8.45;2.47;;;20.40;90.40;;;;;;5028974;28;19995;-73
2022/06/21 11:11:51;;;;;;;6.60;2.22;;;20.50;90.70;;;;;;5027277;28;20057;-79
2022/06/21 11:14:22;;;;;;;7.25;2.33;;;20.50;85.10;;;;;;5027853;28;20487;-75
2022/06/21 11:16:51;;;;;;;6.88;2.13;;;20.50;85.60;;;;;;5031540;28;20094;-73
2022/06/21 11:19:28;;;;;;;7.43;2.23;;;20.80;80.50;;;;;;5035485;28;20025;-79
2022/06/21 11:22:12;;;;;;;6.93;1.95;;;21.10;78.70;;;;;;5018081;28;20034;-75
2022/06/21 11:24:58;;;;;;;6.22;2.20;;;21.50;74.50;;;;;;5010213;28;20026;-75
2022/06/21 11:27:55;;;;;;;7.85;2.13;;;21.80;74.90;;;;;;5026189;28;20033;-76
2022/06/21 11:30:26;;;;;;;5.15;2.00;;;22.10;68.50;;;;;;5028838;28;20057;-74
2022/06/21 11:32:58;;;;;;;6.25;1.90;;;22.10;69.00;;;;;;5023576;28;20060;-73
2022/06/21 11:35:44;;;;;;;7.38;1.90;;;22.00;67.30;;;;;;5023773;28;20128;-73
2022/06/21 11:38:41;;;;;;;6.75;2.00;;;21.70;68.80;;;;;;5009757;28;20045;-73
2022/06/21 11:44:30;;;;;;;5.72;1.75;;;21.10;70.60;;;;;;5031947;28;20091;-73
2022/06/21 11:47:18;;;;;;;8.18;2.13;;;21.00;73.90;;;;;;5038597;28;20045;-73
2022/06/21 11:49:54;;;;;;;5.55;1.92;;;21.00;75.70;;;;;;5016778;28;20057;-73
2022/06/21 11:52:38;;;;;;;6.85;1.90;;;20.90;67.10;;;;;;5026392;28;20025;-72
2022/06/21 11:55:46;;;;;;;6.93;2.10;;;20.80;71.50;;;;;;5029003;28;20087;-73
2022/06/21 11:58:18;;;;;;;6.95;1.60;;;20.80;72.20;;;;;;5033912;28;20466;-75
2022/06/21 12:00:53;;;;;;;4.72;1.77;;;20.80;68.80;;;;;;5044431;28;20029;-77
2022/06/21 12:03:31;;;;;;;5.95;1.80;;;20.90;71.90;;;;;;5003618;28;20116;-76
2022/06/21 12:06:09;;;;;;;6.35;2.13;;;20.90;70.20;;;;;;5035909;28;20438;-76
2022/06/21 12:08:43;;;;;;;5.18;1.75;;;20.90;69.70;;;;;;5027605;28;20446;-74
2022/06/21 12:11:19;;;;;;;5.25;1.80;;;20.90;72.00;;;;;;5027851;28;20112;-77
2022/06/21 12:14:10;;;;;;;7.45;2.20;;;20.90;69.00;;;;;;5009663;28;20033;-74
2022/06/21 12:16:45;;;;;;;6.82;2.53;;;20.90;73.60;;;;;;5007627;28;20037;-73
2022/06/21 12:19:21;;;;;;;6.30;1.80;;;21.00;74.00;;;;;;5027446;28;20041;-76
2022/06/21 12:21:54;;;;;;;6.70;1.77;;;21.00;74.50;;;;;;5008608;28;20037;-74
2022/06/21 12:24:24;;;;;;;9.60;2.30;;;21.10;73.80;;;;;;5009183;28;20037;-75
2022/06/21 12:26:49;;;;;;;;;;;21.10;74.80;;;;;;5017398;28;20420;-76
2022/06/21 12:29:17;;;;;;;5.97;1.90;;;21.10;75.40;;;;;;5027258;28;19920;-75
2022/06/21 12:31:52;;;;;;;6.88;2.20;;;21.10;72.70;;;;;;5022578;28;20041;-77
2022/06/21 12:34:26;;;;;;;4.97;1.83;;;21.10;68.40;;;;;;5026986;28;20029;-75
2022/06/21 12:36:59;;;;;;;6.88;1.80;;;21.20;75.90;;;;;;5009359;28;20033;-72
2022/06/21 12:39:55;;;;;;;6.28;2.15;;;21.20;70.40;;;;;;5010505;28;20507;-77
2022/06/21 12:42:36;;;;;;;6.30;2.20;;;21.30;73.30;;;;;;4999371;28;20403;-74
2022/06/21 12:45:17;;;;;;;6.03;2.08;;;21.30;72.90;;;;;;5009456;28;20155;-75
2022/06/21 12:47:58;;;;;;;5.68;1.92;;;21.30;75.20;;;;;;5026599;28;20037;-77
2022/06/21 12:50:47;;;;;;;6.43;1.98;;;21.30;69.60;;;;;;5009426;28;20065;-76
2022/06/21 12:53:30;;;;;;;8.75;2.33;;;21.40;73.70;;;;;;5028559;28;20726;-76
2022/06/21 12:56:31;;;;;;;6.45;2.20;;;21.50;77.90;;;;;;5026549;28;20104;-77
2022/06/21 12:59:15;;;;;;;5.95;2.33;;;21.60;73.50;;;;;;5021695;28;20519;-77
2022/06/21 13:02:10;;;;;;;6.95;2.00;;;21.70;75.30;;;;;;5026613;28;20060;-80
2022/06/21 13:05:03;;;;;;;4.95;1.98;;;21.70;71.30;;;;;;5012786;28;20566;-79
2022/06/21 13:08:13;;;;;;;7.47;2.08;;;21.70;71.50;;;;;;5030606;28;20068;-77
2022/06/21 13:11:02;;;;;;;5.60;2.13;;;21.70;73.70;;;;;;5026330;28;20033;-77
2022/06/21 13:14:01;;;;;;;4.75;2.05;;;21.60;78.90;;;;;;5017879;28;20068;-76
2022/06/21 13:16:37;;;;;;;;;;;21.60;76.30;;;;;;5028156;28;20113;-76
2022/06/21 13:19:33;;;;;;;5.75;2.13;;;21.60;76.60;;;;;;5008342;28;20390;-77
2022/06/21 13:22:11;;;;;;;8.13;2.22;;;21.80;79.20;;;;;;5026903;28;20537;-76
2022/06/21 13:25:04;;;;;;;5.68;1.60;;;21.80;75.80;;;;;;5022818;28;21738;-79
2022/06/21 13:28:18;;;;;;;5.80;1.88;;;21.80;73.10;;;;;;5010738;28;20069;-76
2022/06/21 13:31:02;;;;;;;8.55;1.90;;;21.90;76.90;;;;;;4978490;28;20814;-78
2022/06/21 13:33:49;;;;;;;6.00;2.13;;;21.90;75.20;;;;;;4995998;28;20092;-74
2022/06/21 13:36:37;;;;;;;6.70;2.30;;;21.90;73.60;;;;;;4993871;28;20050;-72
2022/06/21 13:39:21;;;;;;;5.22;1.70;;;21.80;73.80;;;;;;4985296;28;20133;-78
2022/06/21 13:44:59;;;;;;;4.55;2.10;;;21.80;76.10;;;;;;4996358;28;20039;-72
2022/06/21 13:47:47;;;;;;;9.13;2.15;;;21.80;76.30;;;;;;5023190;28;20073;-76
2022/06/21 13:50:39;;;;;;;4.65;1.85;;;21.80;75.40;;;;;;5001213;28;20034;-76
2022/06/21 13:53:17;;;;;;;6.05;2.20;;;21.80;75.70;;;;;;5005049;28;20022;-75
2022/06/21 13:56:03;;;;;;;5.43;1.90;;;21.80;74.80;;;;;;4985420;28;20500;-78
2022/06/21 13:58:40;;;;;;;6.55;2.05;;;21.80;75.30;;;;;;4985032;28;20089;-75
2022/06/21 14:01:25;;;;;;;6.18;2.00;;;22.00;74.20;;;;;;4994053;28;20037;-76
2022/06/21 14:04:05;;;;;;;12.32;4.00;;;22.00;76.90;;;;;;5018155;28;20784;-76